Time;durP1;ratioP1;P1;durP2;ratioP2;P2;SDS_P1;SDS_P2;PMS_P1;PMS_P2;Temp;Humidity;BMP_temperature;BMP_pressure;BME280_temperature;BME280_humidity;BME280_pressure;Samples;Min_cycle;Max_cycle;Signal;HPM_P1;HPM_P2
2023/07/11 00:03:06;;;;;;;7.00;6.10;;;27.60;59.40;;;;;;222379;1267;22505;-45
2023/07/11 00:08:10;;;;;;;7.00;6.40;;;27.60;59.60;;;;;;222445;1244;25168;-46
2023/07/11 00:13:14;;;;;;;7.20;6.50;;;27.50;59.70;;;;;;222286;1254;22517;-50
2023/07/11 00:18:18;;;;;;;6.50;5.90;;;27.40;59.80;;;;;;222143;1254;22561;-47
2023/07/11 00:23:24;;;;;;;6.10;5.60;;;27.30;59.70;;;;;;222443;1260;22721;-50
2023/07/11 00:28:28;;;;;;;6.90;6.10;;;27.30;59.80;;;;;;222312;1247;24282;-49
2023/07/11 00:33:32;;;;;;;5.80;5.30;;;27.20;59.80;;;;;;222467;1264;24340;-54
2023/07/11 00:38:37;;;;;;;6.40;5.80;;;27.20;59.80;;;;;;222337;1260;24311;-50
2023/07/11 00:43:41;;;;;;;6.00;5.60;;;27.20;59.60;;;;;;222212;1261;22556;-52
2023/07/11 00:48:58;;;;;;;7.80;5.90;;;27.20;59.60;;;;;;222452;1261;22504;-52
2023/07/11 00:54:04;;;;;;;7.30;6.30;;;27.30;59.50;;;;;;222396;1264;22526;-52
2023/07/11 00:59:09;;;;;;;6.40;5.90;;;27.20;59.80;;;;;;222193;1268;24321;-53
2023/07/11 01:04:14;;;;;;;5.70;5.20;;;27.00;59.60;;;;;;222443;1260;24336;-54
2023/07/11 01:09:19;;;;;;;6.30;5.90;;;27.00;60.00;;;;;;222288;1264;22504;-53
2023/07/11 01:14:24;;;;;;;6.30;5.90;;;26.90;59.50;;;;;;222190;1251;24313;-55
2023/07/11 01:19:29;;;;;;;6.30;5.70;;;27.00;59.40;;;;;;222347;1260;25421;-51
2023/07/11 01:24:33;;;;;;;6.50;5.90;;;26.90;59.20;;;;;;222353;1260;22515;-52
2023/07/11 01:29:41;;;;;;;6.10;5.60;;;26.90;59.30;;;;;;222239;1260;23887;-57
2023/07/11 01:34:46;;;;;;;6.20;5.70;;;26.80;59.50;;;;;;222378;1264;25310;-52
2023/07/11 01:39:50;;;;;;;6.30;5.70;;;26.80;59.50;;;;;;222428;1261;24205;-52
2023/07/11 01:44:54;;;;;;;6.30;5.70;;;26.70;59.40;;;;;;222236;1261;22519;-56
2023/07/11 01:49:58;;;;;;;5.40;5.00;;;26.70;59.30;;;;;;222136;1261;23143;-53
2023/07/11 01:55:02;;;;;;;5.90;5.50;;;26.70;59.20;;;;;;222462;1264;24299;-53
2023/07/11 02:00:08;;;;;;;5.80;5.30;;;26.70;59.30;;;;;;222678;1261;24319;-51
2023/07/11 02:05:14;;;;;;;16.70;5.60;;;26.60;59.30;;;;;;222356;1260;24193;-55
2023/07/11 02:10:19;;;;;;;6.10;5.50;;;26.60;59.30;;;;;;222731;1260;25300;-50
2023/07/11 02:15:23;;;;;;;6.30;5.30;;;26.50;59.30;;;;;;222181;1260;182802;-53
2023/07/11 02:20:27;;;;;;;6.50;5.40;;;26.50;59.80;;;;;;222591;1261;22756;-54
2023/07/11 02:25:31;;;;;;;5.90;5.40;;;26.50;59.20;;;;;;222843;1254;22619;-54
2023/07/11 02:30:36;;;;;;;5.80;5.30;;;26.50;59.20;;;;;;222431;1260;22633;-52
2023/07/11 02:35:40;;;;;;;5.50;5.10;;;26.40;59.00;;;;;;222450;1260;22531;-53
2023/07/11 02:40:44;;;;;;;6.00;5.50;;;26.40;59.10;;;;;;222328;1260;24237;-54
2023/07/11 02:45:48;;;;;;;5.80;5.30;;;26.40;59.20;;;;;;222421;1261;22512;-55
2023/07/11 02:50:52;;;;;;;5.70;5.30;;;26.40;59.40;;;;;;222503;1260;24206;-53
2023/07/11 02:55:56;;;;;;;5.70;5.20;;;26.30;59.00;;;;;;222222;1264;22518;-51
2023/07/11 03:01:02;;;;;;;5.90;5.30;;;26.30;59.00;;;;;;222451;1260;24190;-53
2023/07/11 03:06:06;;;;;;;5.30;4.90;;;26.40;59.60;;;;;;222353;1260;22565;-55
2023/07/11 03:11:11;;;;;;;8.00;5.40;;;26.30;59.40;;;;;;222541;1257;22511;-54
2023/07/11 03:16:15;;;;;;;5.30;4.90;;;26.30;60.30;;;;;;222489;1263;23168;-51
2023/07/11 03:21:19;;;;;;;5.70;5.20;;;26.30;60.30;;;;;;222289;1258;25469;-51
2023/07/11 03:26:24;;;;;;;6.20;4.90;;;26.30;60.00;;;;;;222249;1261;22579;-52
2023/07/11 03:31:28;;;;;;;5.70;5.10;;;26.30;60.00;;;;;;222413;1261;22655;-54
2023/07/11 03:36:32;;;;;;;5.30;4.90;;;26.30;59.80;;;;;;222398;1254;23915;-50
2023/07/11 03:41:36;;;;;;;5.80;5.30;;;26.20;59.70;;;;;;222410;1264;22549;-53
2023/07/11 03:46:40;;;;;;;6.00;5.10;;;26.20;59.70;;;;;;222180;1262;22522;-53
2023/07/11 03:51:45;;;;;;;5.80;5.20;;;26.20;60.00;;;;;;222442;1260;22533;-53
2023/07/11 03:56:52;;;;;;;7.10;5.30;;;26.20;59.80;;;;;;222222;1261;22507;-55
2023/07/11 04:01:57;;;;;;;5.40;5.00;;;26.20;60.00;;;;;;222385;1257;22518;-54
2023/07/11 04:07:03;;;;;;;7.80;5.00;;;26.20;60.80;;;;;;222213;1260;22566;-51
2023/07/11 04:12:08;;;;;;;5.90;5.00;;;26.20;59.60;;;;;;222505;1263;22706;-50
2023/07/11 04:17:11;;;;;;;5.00;4.60;;;26.20;60.60;;;;;;222385;1246;24189;-54
2023/07/11 04:22:15;;;;;;;5.20;4.80;;;26.20;60.80;;;;;;222105;1260;23917;-51
2023/07/11 04:27:19;;;;;;;5.70;4.50;;;26.20;60.20;;;;;;222163;1268;22664;-53
2023/07/11 04:32:24;;;;;;;5.20;4.80;;;26.20;60.40;;;;;;222475;1260;22514;-52
2023/07/11 04:37:28;;;;;;;4.60;4.20;;;26.20;60.50;;;;;;222575;1260;22526;-52
2023/07/11 04:42:32;;;;;;;6.80;4.70;;;26.20;60.60;;;;;;222611;1268;22624;-54
2023/07/11 04:47:36;;;;;;;5.50;5.00;;;26.20;60.50;;;;;;222658;1260;25482;-53
2023/07/11 04:52:42;;;;;;;5.20;4.70;;;26.20;60.80;;;;;;222315;1260;25271;-52
2023/07/11 04:57:46;;;;;;;5.40;4.90;;;26.20;60.80;;;;;;222395;1253;22619;-53
2023/07/11 05:02:50;;;;;;;4.90;4.60;;;26.20;60.30;;;;;;222358;1247;24186;-48
2023/07/11 05:07:54;;;;;;;5.80;4.40;;;26.20;60.40;;;;;;222354;1261;22514;-53
2023/07/11 05:12:58;;;;;;;4.60;4.20;;;26.20;60.50;;;;;;222359;1264;22602;-48
2023/07/11 05:18:03;;;;;;;4.60;4.10;;;26.20;61.00;;;;;;222564;1263;25306;-55
2023/07/11 05:23:07;;;;;;;6.20;4.30;;;26.20;60.60;;;;;;222356;1263;22511;-53
2023/07/11 05:28:13;;;;;;;4.40;4.00;;;26.20;60.90;;;;;;222367;1267;26290;-52
2023/07/11 05:33:17;;;;;;;5.70;4.70;;;26.20;60.50;;;;;;222179;1253;22674;-52
2023/07/11 05:38:21;;;;;;;4.80;4.20;;;26.20;60.60;;;;;;222284;1261;24250;-51
2023/07/11 05:43:27;;;;;;;4.20;3.90;;;26.20;60.40;;;;;;227714;1268;24251;-49
2023/07/11 05:48:32;;;;;;;6.10;4.40;;;26.30;60.40;;;;;;230179;1264;22069;-51
2023/07/11 05:53:37;;;;;;;4.10;3.80;;;26.50;60.00;;;;;;225210;1260;24366;-53
2023/07/11 05:58:44;;;;;;;4.50;4.10;;;26.50;60.00;;;;;;222479;1263;22504;-51
2023/07/11 06:04:14;;;;;;;5.60;4.50;;;26.30;59.90;;;;;;222403;1253;22534;-54
2023/07/11 06:09:20;;;;;;;4.10;3.80;;;26.20;60.10;;;;;;222515;1260;22511;-53
2023/07/11 06:14:24;;;;;;;5.30;4.10;;;26.20;59.80;;;;;;222453;1264;25379;-54
2023/07/11 06:19:29;;;;;;;5.40;3.50;;;26.20;60.50;;;;;;222559;1261;25275;-54
2023/07/11 06:24:33;;;;;;;4.80;4.10;;;26.20;60.20;;;;;;222387;1265;24331;-52
2023/07/11 06:29:37;;;;;;;4.60;4.20;;;26.20;59.80;;;;;;222344;1264;22512;-51
2023/07/11 06:34:41;;;;;;;3.50;3.20;;;26.10;60.50;;;;;;222098;1260;24212;-51
2023/07/11 06:39:46;;;;;;;6.10;3.30;;;26.20;59.90;;;;;;222353;1249;24202;-53
2023/07/11 06:44:50;;;;;;;4.80;3.60;;;26.20;60.50;;;;;;222224;1256;24184;-54
2023/07/11 06:49:54;;;;;;;3.50;3.20;;;26.20;60.10;;;;;;222613;1261;22565;-53
2023/07/11 06:54:59;;;;;;;3.60;3.30;;;26.30;60.30;;;;;;222283;1260;22509;-55
2023/07/11 07:00:06;;;;;;;3.90;3.60;;;26.20;60.10;;;;;;222412;1256;23860;-54
2023/07/11 07:05:11;;;;;;;4.00;3.70;;;26.30;60.10;;;;;;221450;1266;22804;-53
2023/07/11 07:10:15;;;;;;;3.90;3.40;;;26.30;60.00;;;;;;221473;1266;25613;-50
2023/07/11 07:15:19;;;;;;;3.70;3.20;;;26.40;59.50;;;;;;221200;1266;22806;-55
2023/07/11 07:20:24;;;;;;;10.10;3.60;;;26.00;58.00;;;;;;221035;1266;22759;-53
2023/07/11 07:25:29;;;;;;;3.40;3.10;;;25.70;58.50;;;;;;221264;1266;22506;-53
2023/07/11 07:30:34;;;;;;;4.70;3.10;;;25.70;58.60;;;;;;220904;1262;23925;-55
2023/07/11 07:35:40;;;;;;;4.10;3.20;;;25.50;58.20;;;;;;221199;1253;25735;-58
2023/07/11 07:40:51;;;;;;;5.60;3.30;;;25.50;58.10;;;;;;221102;1266;22515;-58
2023/07/11 07:45:57;;;;;;;2.80;2.60;;;25.40;57.60;;;;;;221347;1267;23922;-54
2023/07/11 07:51:03;;;;;;;3.10;2.80;;;25.30;56.30;;;;;;222248;1253;22697;-55
2023/07/11 07:56:28;;;;;;;36.20;6.10;;;25.50;56.30;;;;;;222396;1263;24382;-57
2023/07/11 08:01:33;;;;;;;3.30;2.70;;;25.50;56.80;;;;;;222041;1254;24215;-56
2023/07/11 08:06:37;;;;;;;2.60;2.40;;;25.40;57.20;;;;;;222296;1253;22511;-55
2023/07/11 08:11:44;;;;;;;2.50;2.20;;;25.40;56.90;;;;;;222210;1256;22655;-54
2023/07/11 08:16:48;;;;;;;3.00;2.70;;;25.50;56.80;;;;;;222566;1260;22514;-56
2023/07/11 08:21:52;;;;;;;2.60;2.40;;;25.50;56.60;;;;;;222419;1247;24196;-58
2023/07/11 08:26:56;;;;;;;3.80;2.40;;;25.50;56.10;;;;;;222530;1254;23744;-57
2023/07/11 08:32:00;;;;;;;2.70;2.50;;;25.60;55.80;;;;;;222165;1260;22634;-56
2023/07/11 08:37:04;;;;;;;2.90;2.70;;;25.50;54.80;;;;;;222232;1254;22646;-57
2023/07/11 08:42:31;;;;;;;3.20;2.30;;;25.40;55.20;;;;;;222398;1260;24816;-47
2023/07/11 08:47:43;;;;;;;10.30;2.60;;;25.50;55.50;;;;;;222398;1268;24330;-49
2023/07/11 08:53:13;;;;;;;4.10;2.50;;;25.80;55.50;;;;;;222058;1264;22522;-51
2023/07/11 08:58:29;;;;;;;4.40;3.00;;;25.40;54.10;;;;;;222300;1263;26487;-51
2023/07/11 09:03:46;;;;;;;6.30;5.60;;;25.30;53.20;;;;;;222347;1262;26601;-48
2023/07/11 09:08:54;;;;;;;5.00;3.70;;;25.40;53.40;;;;;;222272;1260;22517;-48
2023/07/11 09:14:16;;;;;;;3.10;2.90;;;25.40;53.30;;;;;;222228;1266;22518;-51
2023/07/11 09:19:35;;;;;;;6.40;3.70;;;25.30;53.40;;;;;;222455;1264;22603;-49
2023/07/11 09:24:59;;;;;;;3.10;2.80;;;25.70;53.00;;;;;;222282;1253;24246;-49
2023/07/11 09:30:32;;;;;;;4.70;2.30;;;25.60;52.50;;;;;;222224;1260;25383;-46
2023/07/11 09:35:37;;;;;;;4.70;2.80;;;25.40;52.40;;;;;;222695;1260;23527;-44
2023/07/11 09:41:05;;;;;;;4.20;3.70;;;25.50;52.10;;;;;;222238;1260;25220;-45
2023/07/11 09:46:15;;;;;;;4.80;2.80;;;25.80;51.80;;;;;;222336;1260;22510;-47
2023/07/11 09:51:43;;;;;;;4.70;4.30;;;25.90;51.30;;;;;;222353;1261;22588;-50
2023/07/11 09:56:48;;;;;;;6.30;4.30;;;25.70;51.30;;;;;;222243;1266;25441;-47
2023/07/11 10:01:55;;;;;;;4.00;3.70;;;26.00;49.80;;;;;;222547;1254;22511;-41
2023/07/11 10:07:02;;;;;;;3.40;3.10;;;26.10;50.20;;;;;;222308;1253;22524;-44
2023/07/11 10:12:24;;;;;;;3.40;2.80;;;26.00;50.70;;;;;;222386;1254;25444;-46
2023/07/11 10:17:35;;;;;;;3.10;2.60;;;26.00;50.20;;;;;;222321;1263;22535;-44
2023/07/11 10:22:42;;;;;;;2.90;2.20;;;26.00;49.90;;;;;;222161;1260;23081;-44
2023/07/11 10:27:54;;;;;;;3.10;2.20;;;26.00;49.60;;;;;;222354;1254;24373;-47
2023/07/11 10:33:05;;;;;;;4.10;2.30;;;26.10;49.30;;;;;;222296;1264;22650;-45
2023/07/11 10:38:28;;;;;;;3.50;1.90;;;25.90;49.80;;;;;;222540;1261;22554;-46
2023/07/11 10:43:38;;;;;;;2.70;2.40;;;26.10;49.40;;;;;;222688;1256;26396;-45
2023/07/11 10:48:52;;;;;;;4.20;1.90;;;26.00;49.80;;;;;;222226;1263;24297;-46
2023/07/11 10:54:03;;;;;;;4.80;2.30;;;25.90;49.20;;;;;;222312;1254;25255;-45
2023/07/11 10:59:12;;;;;;;;;;;25.90;48.70;;;;;;222422;1261;25499;-45
2023/07/11 11:04:40;;;;;;;3.40;1.80;;;26.00;48.80;;;;;;222366;1260;24242;-45
2023/07/11 11:10:22;;;;;;;3.00;1.60;;;26.10;49.00;;;;;;222219;1254;22508;-42
2023/07/11 11:15:51;;;;;;;2.20;1.60;;;26.00;48.00;;;;;;222241;1256;23899;-44
2023/07/11 11:21:37;;;;;;;4.50;1.60;;;26.00;47.30;;;;;;222462;1254;24257;-44
2023/07/11 11:27:23;;;;;;;2.60;1.80;;;26.00;47.00;;;;;;222518;1260;22510;-44
2023/07/11 11:32:43;;;;;;;2.50;2.00;;;26.10;47.00;;;;;;222480;1260;22576;-43
2023/07/11 11:38:12;;;;;;;4.70;2.00;;;26.00;46.60;;;;;;222557;1261;24205;-44
2023/07/11 11:43:19;;;;;;;2.20;1.90;;;26.00;46.50;;;;;;222395;1260;22639;-44
2023/07/11 11:48:30;;;;;;;2.70;1.80;;;26.00;46.30;;;;;;222537;1260;23912;-44
2023/07/11 11:53:44;;;;;;;4.40;2.20;;;26.00;46.50;;;;;;222287;1266;24278;-45
2023/07/11 11:59:04;;;;;;;3.00;2.10;;;26.10;46.80;;;;;;222970;1254;22812;-46
2023/07/11 12:04:35;;;;;;;3.00;2.50;;;26.20;46.70;;;;;;222879;1266;22514;-45
2023/07/11 12:10:13;;;;;;;5.40;2.70;;;26.20;46.80;;;;;;222660;1254;22616;-47
2023/07/11 12:15:27;;;;;;;4.20;3.90;;;26.20;47.20;;;;;;222317;1256;25436;-44
2023/07/11 12:20:32;;;;;;;5.90;4.10;;;26.30;46.40;;;;;;222282;1259;24190;-49
2023/07/11 12:25:36;;;;;;;2.60;2.40;;;26.40;46.60;;;;;;222288;1257;22905;-46
2023/07/11 12:30:43;;;;;;;2.30;2.10;;;26.30;46.40;;;;;;222261;1266;22634;-46
2023/07/11 12:36:11;;;;;;;2.00;1.70;;;26.20;46.30;;;;;;222692;1263;25394;-45
2023/07/11 12:41:40;;;;;;;3.80;1.60;;;26.40;45.80;;;;;;222459;1260;22583;-47
2023/07/11 12:46:51;;;;;;;3.90;3.20;;;26.40;45.50;;;;;;222325;1254;25063;-46
2023/07/11 12:52:11;;;;;;;4.00;3.60;;;26.40;46.00;;;;;;222487;1264;24233;-51
2023/07/11 12:57:18;;;;;;;2.80;2.30;;;26.60;46.30;;;;;;222468;1260;22515;-46
2023/07/11 13:02:29;;;;;;;2.80;2.20;;;26.70;47.10;;;;;;222254;1264;22507;-44
2023/07/11 13:07:33;;;;;;;;;;;26.80;47.00;;;;;;222333;1256;22695;-44
2023/07/11 13:12:37;;;;;;;2.70;2.50;;;26.70;46.90;;;;;;222367;1254;23918;-45
2023/07/11 13:17:43;;;;;;;3.70;2.00;;;26.70;46.60;;;;;;222036;1259;24170;-46
2023/07/11 13:22:48;;;;;;;3.50;2.00;;;26.70;46.30;;;;;;222326;1261;22522;-45
2023/07/11 13:27:53;;;;;;;3.60;2.00;;;26.70;45.80;;;;;;222413;1266;22530;-45
2023/07/11 13:32:57;;;;;;;2.50;2.30;;;26.60;45.60;;;;;;222320;1260;22552;-47
2023/07/11 13:38:01;;;;;;;5.60;2.00;;;26.70;45.10;;;;;;222338;1266;22660;-50
2023/07/11 13:43:20;;;;;;;6.30;2.80;;;26.60;45.30;;;;;;222239;1260;22508;-51
2023/07/11 13:48:28;;;;;;;2.30;2.10;;;26.60;45.80;;;;;;222623;1266;24352;-45
2023/07/11 13:53:37;;;;;;;3.20;2.10;;;26.80;45.90;;;;;;222633;1265;25593;-48
2023/07/11 13:58:41;;;;;;;2.20;2.00;;;26.90;45.60;;;;;;222246;1268;25315;-45
2023/07/11 14:03:48;;;;;;;4.30;1.90;;;26.80;46.00;;;;;;222343;1260;22514;-46
2023/07/11 14:08:53;;;;;;;2.80;2.00;;;26.80;46.60;;;;;;222388;1263;22495;-44
2023/07/11 14:13:57;;;;;;;2.90;1.80;;;27.00;45.90;;;;;;221962;1260;211602;-45
2023/07/11 14:19:03;;;;;;;2.70;1.90;;;27.00;45.30;;;;;;222327;1254;22528;-50
2023/07/11 14:24:12;;;;;;;4.40;2.30;;;27.00;46.30;;;;;;222548;1266;22516;-43
2023/07/11 14:29:23;;;;;;;3.40;2.10;;;26.90;46.00;;;;;;222590;1266;25226;-46
2023/07/11 14:34:29;;;;;;;5.60;2.10;;;26.90;46.50;;;;;;222420;1253;24209;-45
2023/07/11 14:39:33;;;;;;;2.60;2.00;;;27.00;47.20;;;;;;222489;1267;24699;-45
2023/07/11 14:44:37;;;;;;;3.80;2.20;;;27.10;47.30;;;;;;222281;1263;22515;-45
2023/07/11 14:49:42;;;;;;;3.70;2.10;;;27.00;48.20;;;;;;222478;1266;22515;-49
2023/07/11 14:54:46;;;;;;;2.60;2.00;;;27.00;48.60;;;;;;222439;1268;25469;-46
2023/07/11 15:00:17;;;;;;;2.30;2.10;;;26.90;46.50;;;;;;222270;1264;24190;-46
2023/07/11 15:05:23;;;;;;;;;;;26.90;45.90;;;;;;222328;1266;25325;-48
2023/07/11 15:10:31;;;;;;;8.10;2.50;;;27.00;45.40;;;;;;222240;1260;22518;-47
2023/07/11 15:15:36;;;;;;;4.40;2.70;;;27.00;45.50;;;;;;222688;1254;24218;-47
2023/07/11 15:20:40;;;;;;;5.50;2.30;;;27.00;46.40;;;;;;221257;1259;22621;-45
2023/07/11 15:25:46;;;;;;;4.60;2.10;;;27.10;47.30;;;;;;221061;1269;24233;-47
2023/07/11 15:30:53;;;;;;;3.30;2.20;;;27.30;47.10;;;;;;221214;1266;22570;-48
2023/07/11 15:35:59;;;;;;;7.20;2.30;;;27.30;47.90;;;;;;221343;1260;22526;-47
2023/07/11 15:41:07;;;;;;;2.80;1.80;;;27.40;47.40;;;;;;230292;1266;23119;-45
2023/07/11 15:46:16;;;;;;;3.70;2.50;;;27.50;46.80;;;;;;230341;1266;22852;-45
2023/07/11 15:51:29;;;;;;;3.10;2.60;;;27.50;46.40;;;;;;230311;1265;22876;-46
2023/07/11 15:56:35;;;;;;;4.80;2.80;;;27.70;46.20;;;;;;223854;1268;26478;-46
2023/07/11 16:01:40;;;;;;;3.50;2.60;;;27.70;46.40;;;;;;222659;1264;25438;-46
2023/07/11 16:06:46;;;;;;;6.30;2.80;;;27.40;46.80;;;;;;222622;1263;25637;-46
2023/07/11 16:11:52;;;;;;;3.00;2.40;;;27.30;46.90;;;;;;222523;1266;23130;-46
2023/07/11 16:16:56;;;;;;;6.40;2.50;;;27.30;46.80;;;;;;222511;1258;23858;-47
2023/07/11 16:22:02;;;;;;;8.20;5.00;;;27.30;46.70;;;;;;222610;1261;22627;-46
2023/07/11 16:27:15;;;;;;;8.60;5.30;;;27.30;48.20;;;;;;222462;1251;26523;-45
2023/07/11 16:32:20;;;;;;;7.10;4.30;;;27.20;50.00;;;;;;222506;1263;22566;-49
2023/07/11 16:37:25;;;;;;;5.40;3.60;;;27.20;51.50;;;;;;222466;1267;22643;-49
2023/07/11 16:42:29;;;;;;;5.00;3.50;;;27.30;50.30;;;;;;222649;1267;22761;-47
2023/07/11 16:47:33;;;;;;;7.20;3.40;;;27.30;49.60;;;;;;222286;1268;22512;-46
2023/07/11 16:52:37;;;;;;;4.80;2.50;;;27.20;49.00;;;;;;222436;1260;22511;-45
2023/07/11 16:57:42;;;;;;;4.60;3.20;;;27.20;48.80;;;;;;222772;1268;22512;-48
2023/07/11 17:02:48;;;;;;;4.80;3.20;;;27.20;48.60;;;;;;222795;1257;22617;-47
2023/07/11 17:07:52;;;;;;;3.50;2.70;;;27.30;48.20;;;;;;222557;1257;22604;-46
2023/07/11 17:12:57;;;;;;;3.50;2.70;;;27.30;48.30;;;;;;222498;1260;22627;-47
2023/07/11 17:18:03;;;;;;;3.40;3.10;;;27.30;48.60;;;;;;222541;1257;24198;-45
2023/07/11 17:23:14;;;;;;;3.30;3.00;;;27.20;48.50;;;;;;222618;1263;22640;-46
2023/07/11 17:28:29;;;;;;;3.60;2.70;;;27.20;49.10;;;;;;222648;1266;22521;-46
2023/07/11 17:33:33;;;;;;;3.00;2.70;;;27.20;49.30;;;;;;222476;1257;22515;-47
2023/07/11 17:38:39;;;;;;;2.90;2.60;;;27.30;49.00;;;;;;222443;1253;25441;-45
2023/07/11 17:43:44;;;;;;;2.70;2.50;;;27.20;49.20;;;;;;222843;1257;24058;-49
2023/07/11 17:48:56;;;;;;;5.30;2.80;;;27.20;49.10;;;;;;222555;1265;22557;-46
2023/07/11 17:54:01;;;;;;;2.50;2.30;;;27.20;49.10;;;;;;222473;1260;24250;-47
2023/07/11 17:59:13;;;;;;;3.30;2.90;;;27.20;49.20;;;;;;222527;1261;22882;-46
2023/07/11 18:04:18;;;;;;;2.70;2.40;;;27.20;49.40;;;;;;222596;1261;23143;-46
2023/07/11 18:09:23;;;;;;;3.80;2.60;;;27.20;49.30;;;;;;222902;1261;22523;-46
2023/07/11 18:14:27;;;;;;;3.20;2.60;;;27.20;49.50;;;;;;222540;1266;22775;-44
2023/07/11 18:19:37;;;;;;;2.60;2.40;;;27.20;49.80;;;;;;222346;1261;22640;-45
2023/07/11 18:24:43;;;;;;;2.50;2.30;;;27.20;49.80;;;;;;222686;1263;22531;-46
2023/07/11 18:29:48;;;;;;;3.00;2.30;;;27.20;49.70;;;;;;222562;1267;22507;-47
2023/07/11 18:34:54;;;;;;;3.10;2.70;;;27.20;50.20;;;;;;222620;1269;25265;-47
2023/07/11 18:40:00;;;;;;;3.60;2.60;;;27.20;50.30;;;;;;222793;1266;25383;-47
2023/07/11 18:45:05;;;;;;;2.50;2.30;;;27.10;50.10;;;;;;222584;1257;24352;-50
2023/07/11 18:50:19;;;;;;;2.90;2.70;;;27.10;50.30;;;;;;222485;1261;25614;-46
2023/07/11 18:55:26;;;;;;;3.80;2.80;;;27.10;50.30;;;;;;222707;1257;22512;-43
2023/07/11 19:00:37;;;;;;;4.10;2.90;;;27.10;50.30;;;;;;222500;1253;24117;-44
2023/07/11 19:05:42;;;;;;;4.70;3.10;;;27.10;50.20;;;;;;222674;1254;22628;-45
2023/07/11 19:10:48;;;;;;;3.20;2.80;;;27.10;50.60;;;;;;222760;1261;23687;-46
2023/07/11 19:15:53;;;;;;;3.70;2.60;;;27.10;50.00;;;;;;222659;1267;22648;-48
2023/07/11 19:20:58;;;;;;;4.20;3.00;;;27.10;50.00;;;;;;222784;1265;22515;-46
2023/07/11 19:26:11;;;;;;;4.30;3.00;;;27.10;49.90;;;;;;222621;1261;25363;-47
2023/07/11 19:31:16;;;;;;;3.40;2.70;;;27.00;49.90;;;;;;222571;1268;24679;-48
2023/07/11 19:36:22;;;;;;;4.20;2.70;;;27.00;49.90;;;;;;222581;1263;22494;-47
2023/07/11 19:41:26;;;;;;;2.90;2.60;;;27.00;49.90;;;;;;222399;1260;25129;-47
2023/07/11 19:46:31;;;;;;;3.80;3.10;;;27.00;50.40;;;;;;222398;1262;22897;-46
2023/07/11 19:51:35;;;;;;;3.80;3.00;;;27.00;50.30;;;;;;222598;1260;22518;-49
2023/07/11 19:56:40;;;;;;;3.20;2.90;;;27.00;50.60;;;;;;222613;1268;22518;-45
2023/07/11 20:01:45;;;;;;;3.40;3.10;;;26.90;50.30;;;;;;222732;1264;22943;-45
2023/07/11 20:06:49;;;;;;;3.30;3.00;;;26.90;50.30;;;;;;222438;1263;24062;-45
2023/07/11 20:11:54;;;;;;;2.80;2.40;;;26.90;50.30;;;;;;222532;1262;22674;-46
2023/07/11 20:16:58;;;;;;;4.50;3.40;;;26.90;50.60;;;;;;222321;1268;22511;-46
2023/07/11 20:22:03;;;;;;;3.60;3.30;;;26.90;50.40;;;;;;222517;1254;25261;-45
2023/07/11 20:27:14;;;;;;;3.60;3.20;;;26.90;50.70;;;;;;222676;1253;24297;-45
2023/07/11 20:32:18;;;;;;;3.80;3.50;;;26.90;50.30;;;;;;222421;1266;24317;-45
2023/07/11 20:37:24;;;;;;;4.10;3.00;;;26.90;50.20;;;;;;222641;1265;22535;-46
2023/07/11 20:42:29;;;;;;;3.60;3.30;;;26.90;50.20;;;;;;222828;1261;22512;-46
2023/07/11 20:47:34;;;;;;;4.70;3.30;;;27.00;50.20;;;;;;222601;1257;22507;-46
2023/07/11 20:52:39;;;;;;;3.70;3.40;;;27.00;50.20;;;;;;222528;1264;24157;-45
2023/07/11 20:57:44;;;;;;;4.50;3.20;;;26.90;50.10;;;;;;222698;1264;22530;-48
2023/07/11 21:02:50;;;;;;;4.10;3.20;;;26.90;50.40;;;;;;222940;1260;22524;-46
2023/07/11 21:07:54;;;;;;;5.80;3.80;;;26.90;50.10;;;;;;222385;1251;22871;-44
2023/07/11 21:13:00;;;;;;;3.80;3.50;;;26.90;50.10;;;;;;222405;1260;25389;-46
2023/07/11 21:18:05;;;;;;;5.70;3.70;;;26.80;50.10;;;;;;222604;1263;24320;-47
2023/07/11 21:23:10;;;;;;;5.20;3.50;;;26.80;50.20;;;;;;222532;1261;22595;-46
2023/07/11 21:28:27;;;;;;;3.80;3.40;;;26.80;50.50;;;;;;222782;1254;22528;-45
2023/07/11 21:33:32;;;;;;;4.00;3.60;;;26.80;50.60;;;;;;222694;1264;22563;-45
2023/07/11 21:38:36;;;;;;;4.40;3.50;;;26.80;49.90;;;;;;222677;1264;23925;-45
2023/07/11 21:43:41;;;;;;;4.00;3.00;;;26.80;50.30;;;;;;222390;1260;22511;-45
2023/07/11 21:48:45;;;;;;;3.40;3.10;;;26.80;50.20;;;;;;222431;1267;22540;-51
2023/07/11 21:53:50;;;;;;;4.30;3.60;;;26.70;50.20;;;;;;222610;1267;22519;-46
2023/07/11 21:58:55;;;;;;;3.60;3.30;;;26.80;50.30;;;;;;222407;1254;24202;-46
2023/07/11 22:04:04;;;;;;;4.30;3.70;;;26.70;50.20;;;;;;222754;1264;22521;-45
2023/07/11 22:09:18;;;;;;;4.90;3.50;;;26.70;50.30;;;;;;222508;1254;22620;-45
2023/07/11 22:14:22;;;;;;;3.80;3.50;;;26.70;50.10;;;;;;222547;1254;24218;-45
2023/07/11 22:19:26;;;;;;;4.10;3.80;;;26.70;50.20;;;;;;222524;1254;22599;-45
2023/07/11 22:24:30;;;;;;;3.70;3.40;;;26.70;50.30;;;;;;222703;1260;22646;-45
2023/07/11 22:29:36;;;;;;;4.10;3.50;;;26.70;50.30;;;;;;222528;1264;22515;-48
2023/07/11 22:34:40;;;;;;;5.10;3.50;;;26.70;50.30;;;;;;222531;1254;22523;-46
2023/07/11 22:39:45;;;;;;;6.00;4.00;;;26.60;50.30;;;;;;222432;1260;22753;-43
2023/07/11 22:44:49;;;;;;;3.40;3.20;;;26.70;50.40;;;;;;222467;1261;22525;-46
2023/07/11 22:49:53;;;;;;;3.60;3.40;;;26.60;50.30;;;;;;222449;1257;24184;-46
2023/07/11 22:54:58;;;;;;;3.80;3.50;;;26.60;50.30;;;;;;222620;1261;22525;-44
2023/07/11 23:00:04;;;;;;;3.80;3.50;;;26.60;50.30;;;;;;222538;1254;22517;-46
2023/07/11 23:05:09;;;;;;;4.00;3.40;;;26.60;50.30;;;;;;222420;1260;22519;-45
2023/07/11 23:10:28;;;;;;;3.80;3.50;;;26.60;50.60;;;;;;222499;1263;24263;-45
2023/07/11 23:15:33;;;;;;;3.50;3.30;;;26.60;50.20;;;;;;222589;1263;23921;-46
2023/07/11 23:20:43;;;;;;;3.50;3.20;;;26.60;50.30;;;;;;222542;1264;22636;-44
2023/07/11 23:25:49;;;;;;;4.50;3.70;;;26.60;50.60;;;;;;222405;1261;25741;-44
2023/07/11 23:30:55;;;;;;;4.80;3.60;;;26.60;50.20;;;;;;222445;1263;22526;-46
2023/07/11 23:36:10;;;;;;;4.10;3.50;;;26.50;50.50;;;;;;222531;1264;24249;-46
2023/07/11 23:41:14;;;;;;;3.80;3.20;;;26.50;50.20;;;;;;222445;1261;22637;-48
2023/07/11 23:46:29;;;;;;;5.60;3.90;;;26.50;50.20;;;;;;222783;1254;22526;-46
2023/07/11 23:51:33;;;;;;;3.80;3.40;;;26.50;50.00;;;;;;222715;1260;22636;-43
2023/07/11 23:56:37;;;;;;;3.50;3.20;;;26.50;50.60;;;;;;222493;1254;22512;-45
